Time;durP1;ratioP1;P1;durP2;ratioP2;P2;SDS_P1;SDS_P2;PMS_P1;PMS_P2;Temp;Humidity;BMP_temperature;BMP_pressure;BME280_temperature;BME280_humidity;BME280_pressure;Samples;Min_cycle;Max_cycle;Signal;HPM_P1;HPM_P2
2023/09/17 00:02:01;;;;;;;7.60;7.00;;;20.90;99.90;;;;;;5055430;28;20618;-75
2023/09/17 00:04:28;;;;;;;7.80;7.20;;;21.00;99.90;;;;;;5058368;28;20432;-76
2023/09/17 00:06:55;;;;;;;7.50;6.90;;;20.90;99.90;;;;;;5059712;28;20438;-75
2023/09/17 00:09:21;;;;;;;7.85;7.25;;;21.00;99.90;;;;;;5059965;28;20431;-75
2023/09/17 00:11:49;;;;;;;8.90;8.10;;;21.00;99.90;;;;;;5053597;28;20446;-75
2023/09/17 00:14:17;;;;;;;9.90;9.10;;;21.00;99.90;;;;;;5055246;28;20440;-75
2023/09/17 00:16:45;;;;;;;10.10;9.30;;;20.90;99.90;;;;;;5059903;28;20428;-75
2023/09/17 00:19:11;;;;;;;10.05;9.25;;;20.90;99.90;;;;;;5052732;28;20860;-76
2023/09/17 00:21:38;;;;;;;11.40;10.50;;;20.90;99.90;;;;;;5059410;28;20427;-75
2023/09/17 00:24:06;;;;;;;11.88;10.88;;;20.80;99.90;;;;;;5059247;28;20423;-75
2023/09/17 00:26:33;;;;;;;10.93;9.98;;;20.80;99.90;;;;;;5064987;28;20435;-75
2023/09/17 00:29:01;;;;;;;10.15;9.45;;;20.80;99.90;;;;;;5061686;28;20431;-75
2023/09/17 00:31:28;;;;;;;11.02;10.13;;;20.90;99.90;;;;;;5063523;28;20513;-75
2023/09/17 00:33:55;;;;;;;10.48;9.57;;;20.90;99.90;;;;;;5061505;28;20419;-75
2023/09/17 00:36:22;;;;;;;10.32;9.48;;;20.90;99.90;;;;;;5064817;28;20427;-76
2023/09/17 00:38:48;;;;;;;9.48;8.68;;;20.90;99.90;;;;;;5066117;28;20434;-75
2023/09/17 00:41:15;;;;;;;9.80;9.00;;;20.90;99.90;;;;;;5062385;28;20539;-75
2023/09/17 00:43:42;;;;;;;10.40;9.50;;;21.00;99.90;;;;;;5058361;28;20515;-76
2023/09/17 00:46:13;;;;;;;8.90;8.20;;;20.90;99.90;;;;;;5053722;28;20557;-75
2023/09/17 00:48:40;;;;;;;8.88;8.07;;;20.90;99.90;;;;;;5059044;28;20429;-76
2023/09/17 00:51:07;;;;;;;8.00;7.40;;;21.00;99.90;;;;;;5061657;28;20906;-76
2023/09/17 00:53:35;;;;;;;8.00;7.35;;;20.90;99.90;;;;;;5054911;28;20464;-75
2023/09/17 00:56:02;;;;;;;7.53;6.82;;;20.90;99.90;;;;;;5061473;28;20435;-75
2023/09/17 00:58:30;;;;;;;7.82;7.22;;;20.90;99.90;;;;;;5060654;28;20597;-75
2023/09/17 01:00:58;;;;;;;8.45;7.70;;;20.90;99.90;;;;;;5054715;28;20441;-76
2023/09/17 01:03:26;;;;;;;7.75;7.05;;;20.90;99.90;;;;;;5060974;28;20435;-76
2023/09/17 01:05:54;;;;;;;7.90;7.20;;;20.90;99.90;;;;;;5056610;28;20437;-75
2023/09/17 01:08:22;;;;;;;8.23;7.53;;;21.00;99.90;;;;;;5058736;28;20813;-76
2023/09/17 01:10:50;;;;;;;7.50;6.90;;;21.00;99.90;;;;;;5056954;28;20451;-75
2023/09/17 01:13:17;;;;;;;7.88;7.28;;;21.00;99.90;;;;;;5063374;28;20428;-75
2023/09/17 01:15:44;;;;;;;8.05;7.45;;;21.00;99.90;;;;;;5055212;28;20794;-75
2023/09/17 01:18:11;;;;;;;8.10;7.40;;;21.00;99.90;;;;;;5059268;28;20871;-74
2023/09/17 01:20:47;;;;;;;9.20;8.30;;;21.00;99.90;;;;;;5059020;28;20923;-75
2023/09/17 01:23:23;;;;;;;8.85;8.15;;;21.00;99.90;;;;;;5054338;28;20412;-75
2023/09/17 01:25:56;;;;;;;8.20;7.50;;;20.90;99.90;;;;;;5053731;28;20904;-75
2023/09/17 01:28:25;;;;;;;9.18;8.32;;;21.00;99.90;;;;;;5056415;28;20922;-75
2023/09/17 01:30:51;;;;;;;9.48;8.68;;;20.90;99.90;;;;;;5059698;28;20428;-75
2023/09/17 01:33:18;;;;;;;9.30;8.50;;;20.90;99.90;;;;;;5064271;28;20437;-75
2023/09/17 01:36:01;;;;;;;9.77;8.98;;;20.90;99.90;;;;;;5061412;28;20432;-75
2023/09/17 01:38:32;;;;;;;9.65;8.85;;;20.90;99.90;;;;;;5061189;28;20688;-75
2023/09/17 01:41:00;;;;;;;10.40;9.50;;;20.90;99.90;;;;;;5062473;28;20518;-75
2023/09/17 01:43:28;;;;;;;10.27;9.50;;;20.90;99.90;;;;;;5058070;28;20441;-75
2023/09/17 01:45:55;;;;;;;10.48;9.63;;;20.90;99.90;;;;;;5058660;28;20522;-75
2023/09/17 01:48:22;;;;;;;10.43;9.60;;;20.90;99.90;;;;;;5056357;28;20461;-75
2023/09/17 01:50:50;;;;;;;10.60;9.70;;;21.00;99.90;;;;;;5060478;28;20489;-75
2023/09/17 01:53:17;;;;;;;11.13;10.23;;;21.00;99.90;;;;;;5057457;28;20731;-75
2023/09/17 01:55:43;;;;;;;10.52;9.63;;;20.90;99.90;;;;;;5063276;28;20530;-75
2023/09/17 01:58:11;;;;;;;11.68;10.77;;;20.90;99.90;;;;;;5063824;28;20424;-74
2023/09/17 02:00:39;;;;;;;11.65;10.70;;;20.90;99.90;;;;;;5060760;28;20435;-74
2023/09/17 02:03:05;;;;;;;11.53;10.73;;;20.80;99.90;;;;;;5057530;28;20425;-74
2023/09/17 02:05:32;;;;;;;13.02;11.82;;;20.80;99.90;;;;;;5061037;28;20424;-73
2023/09/17 02:07:59;;;;;;;12.00;11.10;;;20.80;99.90;;;;;;5055097;28;20522;-74
2023/09/17 02:10:26;;;;;;;12.25;11.25;;;20.70;99.90;;;;;;5054432;28;20876;-74
2023/09/17 02:12:52;;;;;;;12.93;11.93;;;20.70;99.90;;;;;;5058168;28;20431;-74
2023/09/17 02:15:19;;;;;;;12.57;11.57;;;20.70;99.90;;;;;;5058695;28;20419;-74
2023/09/17 02:17:51;;;;;;;11.40;10.50;;;20.70;99.90;;;;;;5058588;28;20496;-74
2023/09/17 02:20:18;;;;;;;11.25;10.35;;;20.60;99.90;;;;;;5063531;28;20435;-74
2023/09/17 02:22:45;;;;;;;11.60;10.70;;;20.60;99.90;;;;;;5064865;28;20427;-74
2023/09/17 02:25:12;;;;;;;12.32;11.32;;;20.60;99.90;;;;;;5061996;28;20435;-74
2023/09/17 02:27:39;;;;;;;12.20;11.10;;;20.60;99.90;;;;;;5070628;28;20421;-74
2023/09/17 02:30:08;;;;;;;11.32;10.52;;;20.60;99.90;;;;;;5082266;22;20447;-72
2023/09/17 02:32:36;;;;;;;11.13;10.25;;;20.50;99.90;;;;;;5054228;28;20425;-71
2023/09/17 02:35:05;;;;;;;10.85;10.00;;;20.40;99.90;;;;;;5058485;28;20430;-71
2023/09/17 02:37:32;;;;;;;10.02;9.32;;;20.40;99.90;;;;;;5064692;28;20427;-74
2023/09/17 02:39:59;;;;;;;11.15;10.25;;;20.30;99.90;;;;;;5058348;28;20439;-71
2023/09/17 02:42:26;;;;;;;10.95;10.05;;;20.40;99.90;;;;;;5057595;28;20501;-74
2023/09/17 02:44:53;;;;;;;10.90;10.00;;;20.40;99.90;;;;;;5053197;28;20470;-70
2023/09/17 02:47:19;;;;;;;10.88;9.98;;;20.30;99.90;;;;;;5046346;28;20435;-72
2023/09/17 02:49:46;;;;;;;10.70;9.90;;;20.40;99.90;;;;;;5059636;28;20434;-72
2023/09/17 02:52:15;;;;;;;10.95;9.95;;;20.40;99.90;;;;;;5056485;28;20430;-71
2023/09/17 02:54:42;;;;;;;11.50;10.40;;;20.30;99.90;;;;;;5042455;28;20433;-71
2023/09/17 02:57:09;;;;;;;10.43;9.63;;;20.30;99.90;;;;;;5053500;28;20437;-71
2023/09/17 02:59:35;;;;;;;11.57;10.57;;;20.30;99.90;;;;;;5050800;28;20441;-71
2023/09/17 03:02:03;;;;;;;10.47;9.67;;;20.30;99.90;;;;;;5040564;28;20436;-72
2023/09/17 03:04:30;;;;;;;10.85;10.05;;;20.30;99.90;;;;;;5044871;28;20432;-71
2023/09/17 03:06:58;;;;;;;11.10;10.30;;;20.30;99.90;;;;;;5051011;28;20499;-73
2023/09/17 03:09:26;;;;;;;10.40;9.60;;;20.30;99.90;;;;;;5057972;28;20432;-70
2023/09/17 03:11:53;;;;;;;11.23;10.32;;;20.30;99.90;;;;;;5047669;28;20437;-73
2023/09/17 03:14:20;;;;;;;11.05;10.25;;;20.30;99.90;;;;;;5053589;28;20425;-71
2023/09/17 03:16:46;;;;;;;11.00;10.10;;;20.30;99.90;;;;;;5044834;28;20435;-73
2023/09/17 03:19:14;;;;;;;10.60;9.80;;;20.30;99.90;;;;;;5051282;28;20424;-73
2023/09/17 03:21:41;;;;;;;10.77;9.98;;;20.30;99.90;;;;;;5043736;28;20452;-70
2023/09/17 03:24:09;;;;;;;10.65;9.75;;;20.30;99.90;;;;;;5053674;28;20761;-73
2023/09/17 03:26:37;;;;;;;10.65;9.75;;;20.30;99.90;;;;;;5041232;28;20448;-72
2023/09/17 03:29:04;;;;;;;10.80;10.00;;;20.30;99.90;;;;;;5050635;28;20432;-73
2023/09/17 03:31:31;;;;;;;11.35;10.45;;;20.20;99.90;;;;;;5065469;28;20435;-71
2023/09/17 03:33:57;;;;;;;11.13;10.25;;;20.20;99.90;;;;;;5079566;28;20432;-71
2023/09/17 03:36:24;;;;;;;11.07;10.17;;;20.20;99.90;;;;;;5067319;28;20477;-72
2023/09/17 03:38:51;;;;;;;10.93;10.05;;;20.20;99.90;;;;;;5054706;28;20435;-73
2023/09/17 03:41:18;;;;;;;10.95;10.05;;;20.20;99.90;;;;;;5075056;28;20405;-71
2023/09/17 03:43:46;;;;;;;11.43;10.52;;;20.20;99.90;;;;;;5072266;28;21355;-72
2023/09/17 03:46:13;;;;;;;11.48;10.30;;;20.20;99.90;;;;;;5066089;28;20439;-72
2023/09/17 03:48:40;;;;;;;11.60;10.60;;;20.20;99.90;;;;;;5069990;28;20431;-71
2023/09/17 03:51:07;;;;;;;11.50;10.45;;;20.20;99.90;;;;;;5100090;28;20398;-71
2023/09/17 03:53:34;;;;;;;12.30;11.20;;;20.20;99.90;;;;;;5077060;28;20494;-72
2023/09/17 03:56:01;;;;;;;11.02;10.23;;;20.10;99.90;;;;;;5064301;28;20435;-72
2023/09/17 03:58:27;;;;;;;10.73;9.93;;;20.10;99.90;;;;;;5066840;28;20419;-73
2023/09/17 04:00:55;;;;;;;11.15;10.25;;;20.10;99.90;;;;;;5066122;28;20431;-73
2023/09/17 04:03:22;;;;;;;11.00;10.10;;;20.10;99.90;;;;;;5069980;28;20909;-73
2023/09/17 04:05:50;;;;;;;11.57;10.68;;;20.00;99.90;;;;;;5076045;28;20429;-72
2023/09/17 04:08:17;;;;;;;11.45;10.57;;;20.00;99.90;;;;;;5075624;28;20434;-72
2023/09/17 04:10:44;;;;;;;11.05;10.25;;;20.00;99.90;;;;;;5075716;28;20411;-70
2023/09/17 04:13:12;;;;;;;11.60;10.60;;;20.00;99.90;;;;;;5070827;28;20421;-71
2023/09/17 04:15:39;;;;;;;10.73;9.93;;;20.00;99.90;;;;;;5071074;28;20420;-72
2023/09/17 04:18:07;;;;;;;11.00;10.20;;;19.90;99.90;;;;;;5073265;28;20431;-72
2023/09/17 04:20:35;;;;;;;11.07;10.18;;;19.90;99.90;;;;;;5074113;28;20795;-72
2023/09/17 04:23:03;;;;;;;11.95;11.05;;;19.90;99.90;;;;;;5080006;28;20888;-71
2023/09/17 04:25:32;;;;;;;10.48;9.77;;;19.80;99.90;;;;;;5070812;28;20430;-70
2023/09/17 04:27:59;;;;;;;11.10;10.20;;;19.80;99.90;;;;;;5076308;28;20402;-71
2023/09/17 04:30:26;;;;;;;10.50;9.70;;;19.80;99.90;;;;;;5071916;28;20444;-73
2023/09/17 04:32:54;;;;;;;10.60;9.80;;;19.70;99.90;;;;;;5075202;28;20509;-72
2023/09/17 04:35:22;;;;;;;10.70;9.90;;;19.70;99.90;;;;;;5074440;28;20427;-72
2023/09/17 04:37:51;;;;;;;10.25;9.55;;;19.70;99.90;;;;;;5075209;28;20406;-72
2023/09/17 04:40:18;;;;;;;9.80;9.00;;;19.60;99.90;;;;;;5068738;28;20446;-73
2023/09/17 04:42:46;;;;;;;10.20;9.40;;;19.70;99.90;;;;;;5075892;28;20503;-72
2023/09/17 04:45:30;;;;;;;11.30;10.30;;;19.60;99.90;;;;;;5073786;28;20465;-73
2023/09/17 04:47:57;;;;;;;11.55;10.57;;;19.60;99.90;;;;;;5062448;28;20415;-71
2023/09/17 04:50:25;;;;;;;11.45;10.55;;;19.60;99.90;;;;;;5070188;28;20436;-73
2023/09/17 04:52:52;;;;;;;10.88;10.07;;;19.50;99.90;;;;;;5075749;28;20431;-71
2023/09/17 04:55:19;;;;;;;11.57;10.70;;;19.50;99.90;;;;;;5070866;28;20488;-71
2023/09/17 04:57:45;;;;;;;11.23;10.43;;;19.50;99.90;;;;;;5074770;28;20420;-71
2023/09/17 05:00:13;;;;;;;11.10;10.30;;;19.50;99.90;;;;;;5067557;28;20415;-74
2023/09/17 05:02:40;;;;;;;10.80;10.00;;;19.50;99.90;;;;;;5064943;28;20801;-74
2023/09/17 05:05:08;;;;;;;12.10;11.10;;;19.40;99.90;;;;;;5071802;28;20432;-72
2023/09/17 05:07:37;;;;;;;10.40;9.70;;;19.40;99.90;;;;;;5067066;28;20431;-72
2023/09/17 05:10:05;;;;;;;11.05;10.23;;;19.50;99.90;;;;;;5066725;28;20432;-72
2023/09/17 05:12:32;;;;;;;11.10;10.30;;;19.40;99.90;;;;;;5070460;28;20974;-72
2023/09/17 05:14:59;;;;;;;10.25;9.45;;;19.40;99.90;;;;;;5064282;28;20450;-70
2023/09/17 05:17:25;;;;;;;10.85;10.07;;;19.40;99.90;;;;;;5071400;28;20442;-72
2023/09/17 05:19:52;;;;;;;10.57;9.77;;;19.40;99.90;;;;;;5077213;28;20440;-71
2023/09/17 05:22:19;;;;;;;10.73;9.82;;;19.40;99.90;;;;;;5076599;28;20419;-70
2023/09/17 05:24:47;;;;;;;10.88;9.98;;;19.30;99.90;;;;;;5083628;28;20422;-71
2023/09/17 05:27:14;;;;;;;10.38;9.63;;;19.40;99.90;;;;;;5069913;28;20510;-72
2023/09/17 05:29:41;;;;;;;10.20;9.40;;;19.40;99.90;;;;;;5070915;28;20426;-73
2023/09/17 05:32:08;;;;;;;10.48;9.60;;;19.30;99.90;;;;;;5067900;28;20432;-70
2023/09/17 05:34:35;;;;;;;10.30;9.50;;;19.30;99.90;;;;;;5069725;28;20434;-72
2023/09/17 05:37:02;;;;;;;10.60;9.80;;;19.30;99.90;;;;;;5075195;28;20435;-72
2023/09/17 05:39:28;;;;;;;11.00;10.00;;;19.30;99.90;;;;;;5064684;28;20436;-73
2023/09/17 05:41:56;;;;;;;10.60;9.70;;;19.40;99.90;;;;;;5067558;28;20424;-72
2023/09/17 05:44:23;;;;;;;10.48;9.57;;;19.40;99.90;;;;;;5089601;28;20418;-70
2023/09/17 05:46:50;;;;;;;11.23;10.23;;;19.30;99.90;;;;;;5073456;28;20421;-73
2023/09/17 05:49:17;;;;;;;11.80;10.80;;;19.30;99.90;;;;;;5075226;28;20406;-72
2023/09/17 05:51:44;;;;;;;10.48;9.68;;;19.30;99.90;;;;;;5067842;28;20444;-72
2023/09/17 05:54:11;;;;;;;11.50;10.60;;;19.30;99.90;;;;;;5071078;28;20439;-73
2023/09/17 05:56:37;;;;;;;11.80;10.85;;;19.30;99.90;;;;;;5071523;28;20431;-71
2023/09/17 05:59:05;;;;;;;11.27;10.33;;;19.30;99.90;;;;;;5079330;28;20545;-70
2023/09/17 06:01:33;;;;;;;11.90;10.90;;;19.30;99.90;;;;;;5072816;28;20435;-72
2023/09/17 06:03:59;;;;;;;11.20;10.30;;;19.20;99.90;;;;;;5076554;28;20421;-71
2023/09/17 06:06:26;;;;;;;10.40;9.60;;;19.30;99.90;;;;;;5072251;28;20439;-72
2023/09/17 06:08:53;;;;;;;10.60;9.70;;;19.30;99.90;;;;;;5069970;28;20438;-71
2023/09/17 06:11:20;;;;;;;11.40;10.40;;;19.30;99.90;;;;;;5074374;28;20437;-73
2023/09/17 06:13:47;;;;;;;11.05;10.15;;;19.40;99.90;;;;;;5068424;28;20431;-72
2023/09/17 06:16:15;;;;;;;10.82;9.93;;;19.40;99.90;;;;;;5070072;28;20503;-72
2023/09/17 06:18:42;;;;;;;10.20;9.30;;;19.50;99.90;;;;;;5080958;28;20463;-72
2023/09/17 06:21:08;;;;;;;10.50;9.80;;;19.50;99.90;;;;;;5079435;28;20603;-71
2023/09/17 06:23:35;;;;;;;10.75;9.90;;;19.50;99.90;;;;;;5074233;28;20820;-72
2023/09/17 06:26:02;;;;;;;9.60;8.80;;;19.60;99.90;;;;;;5072339;28;20534;-73
2023/09/17 06:28:29;;;;;;;9.82;8.93;;;19.60;99.90;;;;;;5079971;28;20417;-71
2023/09/17 06:30:55;;;;;;;10.10;9.30;;;19.70;99.90;;;;;;5063137;28;20425;-72
2023/09/17 06:33:23;;;;;;;9.60;8.90;;;19.70;99.90;;;;;;5073382;28;20537;-71
2023/09/17 06:35:50;;;;;;;9.35;8.65;;;19.70;99.90;;;;;;5068745;28;20424;-72
2023/09/17 06:38:17;;;;;;;9.70;8.90;;;19.70;99.90;;;;;;5064635;28;20531;-73
2023/09/17 06:40:43;;;;;;;9.40;8.60;;;19.80;99.90;;;;;;5075573;28;20427;-72
2023/09/17 06:43:11;;;;;;;9.15;8.35;;;19.80;99.90;;;;;;5072069;28;20417;-72
2023/09/17 06:45:38;;;;;;;8.98;8.30;;;19.90;99.90;;;;;;5072299;28;20845;-72
2023/09/17 06:48:05;;;;;;;9.25;8.45;;;20.00;99.90;;;;;;5068962;28;20414;-72
2023/09/17 06:50:33;;;;;;;9.55;8.85;;;20.00;99.90;;;;;;5060629;28;20427;-73
2023/09/17 06:53:00;;;;;;;9.30;8.60;;;20.10;99.90;;;;;;5070971;28;20433;-74
2023/09/17 06:55:26;;;;;;;8.98;8.27;;;20.20;99.90;;;;;;5061130;28;20405;-73
2023/09/17 06:57:53;;;;;;;8.98;8.30;;;20.20;99.90;;;;;;5066595;28;20442;-73
2023/09/17 07:00:20;;;;;;;9.93;9.13;;;20.20;99.90;;;;;;5071489;28;20429;-74
2023/09/17 07:02:47;;;;;;;8.25;7.55;;;20.30;99.90;;;;;;5074841;28;20442;-74
2023/09/17 07:05:14;;;;;;;9.05;8.35;;;20.30;99.90;;;;;;5070542;28;20437;-75
2023/09/17 07:07:42;;;;;;;8.38;7.68;;;20.50;99.90;;;;;;5064432;28;20427;-74
2023/09/17 07:10:09;;;;;;;8.05;7.45;;;20.60;99.90;;;;;;5070183;28;20423;-73
2023/09/17 07:12:38;;;;;;;8.18;7.57;;;20.70;99.90;;;;;;5063110;28;20427;-73
2023/09/17 07:15:06;;;;;;;7.35;6.75;;;20.80;99.90;;;;;;5074519;28;20892;-71
2023/09/17 07:17:33;;;;;;;7.03;6.53;;;20.90;99.90;;;;;;5077913;28;21055;-73
2023/09/17 07:20:00;;;;;;;7.43;6.82;;;21.10;99.90;;;;;;5079717;28;20422;-73
2023/09/17 07:22:27;;;;;;;6.50;6.00;;;21.20;99.90;;;;;;5070636;28;20609;-75
2023/09/17 07:24:58;;;;;;;7.00;6.40;;;21.30;99.90;;;;;;5076536;28;20804;-73
2023/09/17 07:27:25;;;;;;;6.40;6.00;;;21.40;99.90;;;;;;5065450;28;20906;-71
2023/09/17 07:29:52;;;;;;;6.50;6.00;;;21.40;99.90;;;;;;5061289;28;20410;-74
2023/09/17 07:32:19;;;;;;;7.03;6.20;;;21.50;99.90;;;;;;5066495;28;20937;-73
2023/09/17 07:34:46;;;;;;;5.85;5.35;;;21.50;99.90;;;;;;5072139;28;20439;-75
2023/09/17 07:37:13;;;;;;;6.20;5.80;;;21.60;99.90;;;;;;5067354;28;20423;-75
2023/09/17 07:39:39;;;;;;;5.90;5.40;;;21.70;99.90;;;;;;5072666;28;20439;-73
2023/09/17 07:42:08;;;;;;;5.60;5.20;;;21.80;99.90;;;;;;5068637;28;20422;-72
2023/09/17 07:44:35;;;;;;;5.18;4.75;;;22.00;99.90;;;;;;5076827;28;20483;-75
2023/09/17 07:47:02;;;;;;;5.10;4.60;;;22.20;99.90;;;;;;5072056;28;20426;-74
2023/09/17 07:49:30;;;;;;;4.70;4.30;;;22.50;98.30;;;;;;5075429;28;20429;-75
2023/09/17 07:51:57;;;;;;;5.77;4.13;;;22.60;96.30;;;;;;5077004;28;20443;-73
2023/09/17 07:54:25;;;;;;;5.03;4.63;;;22.70;96.40;;;;;;5077259;28;20429;-73
2023/09/17 07:56:51;;;;;;;4.80;4.30;;;22.80;95.30;;;;;;5078773;28;20417;-73
2023/09/17 07:59:19;;;;;;;4.70;4.40;;;22.80;95.30;;;;;;5072415;28;20494;-73
2023/09/17 08:01:47;;;;;;;4.15;3.85;;;22.90;95.20;;;;;;5063381;28;20942;-75
2023/09/17 08:04:14;;;;;;;4.30;3.90;;;23.00;95.20;;;;;;5069269;28;20439;-75
2023/09/17 08:06:41;;;;;;;4.30;3.90;;;23.10;94.00;;;;;;5074771;28;20459;-72
2023/09/17 08:09:08;;;;;;;4.10;3.80;;;23.00;93.40;;;;;;5072422;28;20539;-74
2023/09/17 08:11:35;;;;;;;4.90;4.50;;;23.10;93.80;;;;;;5084910;28;20414;-75
2023/09/17 08:14:01;;;;;;;4.90;4.40;;;23.00;94.30;;;;;;5089025;28;20427;-74
2023/09/17 08:16:30;;;;;;;4.55;4.15;;;23.00;94.20;;;;;;5069099;28;20445;-75
2023/09/17 08:18:57;;;;;;;3.80;3.50;;;23.20;94.10;;;;;;5069999;28;20416;-73
2023/09/17 08:21:24;;;;;;;4.20;3.90;;;23.30;93.60;;;;;;5081624;28;20458;-72
2023/09/17 08:23:51;;;;;;;4.00;3.70;;;23.50;92.30;;;;;;5069744;28;20433;-69
2023/09/17 08:26:17;;;;;;;3.80;3.50;;;23.60;92.40;;;;;;5076873;28;20434;-72
2023/09/17 08:28:45;;;;;;;3.80;3.50;;;23.70;91.40;;;;;;5074246;28;20428;-72
2023/09/17 08:31:12;;;;;;;4.43;4.03;;;23.80;91.50;;;;;;5088225;22;20435;-70
2023/09/17 08:33:40;;;;;;;3.65;3.35;;;23.90;91.10;;;;;;5062227;28;20807;-69
2023/09/17 08:36:08;;;;;;;3.75;3.30;;;24.10;90.60;;;;;;5064828;28;20487;-69
2023/09/17 08:38:35;;;;;;;3.42;3.13;;;24.30;90.10;;;;;;5070808;28;20431;-69
2023/09/17 08:41:03;;;;;;;4.00;3.70;;;24.40;88.30;;;;;;5066575;28;20725;-70
2023/09/17 08:43:31;;;;;;;3.40;3.10;;;24.50;86.50;;;;;;5067065;28;20509;-72
2023/09/17 08:45:59;;;;;;;4.10;3.40;;;24.30;86.90;;;;;;5065456;28;20505;-70
2023/09/17 08:48:26;;;;;;;4.30;3.90;;;24.30;87.40;;;;;;5072231;28;20510;-69
2023/09/17 08:50:56;;;;;;;4.57;4.20;;;24.30;90.00;;;;;;5070536;28;20562;-70
2023/09/17 08:53:28;;;;;;;4.32;3.92;;;24.40;90.30;;;;;;5062764;28;20438;-70
2023/09/17 08:55:56;;;;;;;4.40;4.10;;;24.60;89.10;;;;;;5077486;28;20422;-71
2023/09/17 08:58:30;;;;;;;3.97;3.67;;;24.60;88.80;;;;;;5066382;28;20516;-71
2023/09/17 09:00:59;;;;;;;3.53;3.22;;;24.80;88.30;;;;;;5055490;28;20510;-72
2023/09/17 09:03:30;;;;;;;3.93;3.63;;;25.00;87.50;;;;;;5060481;28;20834;-72
2023/09/17 09:05:59;;;;;;;4.00;3.70;;;25.20;85.10;;;;;;5059164;28;20503;-73
2023/09/17 09:08:26;;;;;;;4.00;3.70;;;25.20;85.10;;;;;;5059460;28;20443;-71
2023/09/17 09:10:53;;;;;;;3.80;3.50;;;25.00;87.70;;;;;;5061382;28;20449;-71
2023/09/17 09:13:22;;;;;;;4.10;3.80;;;24.90;88.50;;;;;;5065601;28;20619;-71
2023/09/17 09:15:49;;;;;;;3.70;3.40;;;25.00;86.50;;;;;;5060207;28;20487;-75
2023/09/17 09:18:16;;;;;;;4.43;3.45;;;24.80;86.60;;;;;;5061955;28;20816;-70
2023/09/17 09:20:43;;;;;;;3.72;3.40;;;24.80;87.70;;;;;;5059129;28;20432;-70
2023/09/17 09:23:11;;;;;;;3.38;3.08;;;24.80;86.90;;;;;;5057136;28;20436;-69
2023/09/17 09:25:38;;;;;;;3.60;3.20;;;24.80;84.90;;;;;;5072659;28;20416;-69
2023/09/17 09:28:05;;;;;;;5.05;3.40;;;25.00;84.30;;;;;;5057589;28;20477;-69
2023/09/17 09:30:32;;;;;;;3.60;3.30;;;25.10;84.70;;;;;;5051770;28;20431;-69
2023/09/17 09:32:59;;;;;;;3.90;3.00;;;25.40;82.40;;;;;;5057980;28;20518;-68
2023/09/17 09:35:26;;;;;;;3.30;3.00;;;25.50;82.30;;;;;;5053718;28;21897;-69
2023/09/17 09:37:54;;;;;;;4.25;3.20;;;25.70;82.60;;;;;;5054070;28;20441;-69
2023/09/17 09:40:24;;;;;;;3.50;3.20;;;25.80;82.00;;;;;;5067549;28;20427;-68
2023/09/17 09:42:51;;;;;;;3.10;2.80;;;26.00;82.00;;;;;;5057788;28;20453;-69
2023/09/17 09:45:18;;;;;;;4.93;3.35;;;26.10;80.00;;;;;;5054240;28;20441;-77
2023/09/17 09:47:48;;;;;;;3.10;2.80;;;26.30;78.70;;;;;;5060859;28;20428;-78
2023/09/17 09:50:22;;;;;;;3.10;2.80;;;26.40;78.60;;;;;;5052003;28;20521;-77
2023/09/17 09:52:49;;;;;;;3.50;3.20;;;26.70;77.30;;;;;;5058105;28;20485;-78
2023/09/17 09:55:15;;;;;;;2.60;2.40;;;26.90;74.20;;;;;;5058168;28;20489;-77
2023/09/17 09:57:44;;;;;;;2.88;2.67;;;26.90;74.10;;;;;;5054629;28;20687;-77
2023/09/17 10:00:14;;;;;;;3.10;2.50;;;27.00;73.50;;;;;;5061341;28;20443;-77
2023/09/17 10:02:41;;;;;;;3.00;2.70;;;27.00;72.50;;;;;;5059591;28;20435;-77
2023/09/17 10:05:11;;;;;;;3.33;2.97;;;27.10;73.20;;;;;;5067801;28;20431;-77
2023/09/17 10:07:39;;;;;;;2.70;2.50;;;27.30;70.70;;;;;;5066087;28;20432;-77
2023/09/17 10:10:08;;;;;;;3.20;2.50;;;27.30;71.80;;;;;;5063792;28;20433;-77
2023/09/17 10:12:35;;;;;;;2.90;2.40;;;27.60;70.90;;;;;;5069146;28;20496;-76
2023/09/17 10:15:05;;;;;;;2.58;2.38;;;27.70;69.20;;;;;;5073329;28;20911;-77
2023/09/17 10:17:33;;;;;;;2.85;2.58;;;27.90;67.10;;;;;;5069957;28;20896;-75
2023/09/17 10:20:01;;;;;;;2.80;2.50;;;28.10;65.90;;;;;;5062205;28;20426;-77
2023/09/17 10:22:28;;;;;;;2.70;2.30;;;28.00;65.90;;;;;;5072260;28;20443;-77
2023/09/17 10:24:55;;;;;;;2.35;2.10;;;28.00;65.50;;;;;;5069897;28;20432;-78
2023/09/17 10:27:23;;;;;;;2.13;2.00;;;27.90;65.80;;;;;;5059273;28;20821;-77
2023/09/17 10:29:50;;;;;;;2.63;2.30;;;28.00;66.00;;;;;;5060721;28;20454;-77
2023/09/17 10:32:20;;;;;;;4.50;2.88;;;28.00;66.60;;;;;;5056810;28;20428;-76
2023/09/17 10:34:47;;;;;;;2.88;2.30;;;28.10;63.80;;;;;;5067887;28;20407;-76
2023/09/17 10:37:17;;;;;;;2.50;2.30;;;28.20;64.90;;;;;;5051502;28;20861;-76
2023/09/17 10:39:44;;;;;;;3.60;2.60;;;28.30;64.80;;;;;;5074975;28;20626;-77
2023/09/17 10:42:13;;;;;;;2.40;2.20;;;28.30;62.90;;;;;;5067067;28;20435;-76
2023/09/17 10:44:42;;;;;;;3.20;2.80;;;28.40;61.70;;;;;;5072995;28;20752;-76
2023/09/17 10:47:11;;;;;;;2.65;2.42;;;28.60;61.50;;;;;;5057566;28;20456;-75
2023/09/17 10:49:41;;;;;;;2.90;1.90;;;28.60;60.10;;;;;;5066605;28;20637;-76
2023/09/17 10:52:09;;;;;;;2.20;2.00;;;28.50;60.90;;;;;;5067997;28;20449;-77
2023/09/17 10:54:36;;;;;;;2.33;2.13;;;28.60;61.50;;;;;;5057920;28;20530;-77
2023/09/17 10:57:09;;;;;;;2.40;2.20;;;28.60;59.30;;;;;;5070284;28;20406;-77
2023/09/17 10:59:36;;;;;;;2.60;2.20;;;28.80;60.60;;;;;;5063498;28;21202;-76
2023/09/17 11:02:03;;;;;;;2.25;1.80;;;29.10;57.50;;;;;;5075925;28;20543;-78
2023/09/17 11:04:31;;;;;;;2.58;1.70;;;29.20;56.10;;;;;;5059969;28;20495;-77
2023/09/17 11:07:03;;;;;;;1.90;1.80;;;29.10;56.90;;;;;;5069526;28;20517;-76
2023/09/17 11:09:30;;;;;;;2.22;2.03;;;29.10;55.80;;;;;;5058746;28;20467;-78
2023/09/17 11:11:57;;;;;;;2.20;2.00;;;29.10;54.80;;;;;;5078188;28;20660;-76
2023/09/17 11:14:24;;;;;;;2.33;2.13;;;28.70;56.50;;;;;;5061382;28;20927;-76
2023/09/17 11:16:50;;;;;;;2.30;1.90;;;28.70;58.00;;;;;;5065959;28;20710;-76
2023/09/17 11:19:19;;;;;;;2.40;2.20;;;28.80;59.20;;;;;;5076847;28;20492;-75
2023/09/17 11:21:48;;;;;;;3.00;2.00;;;28.90;59.30;;;;;;5068518;28;20450;-78
2023/09/17 11:24:20;;;;;;;2.13;1.93;;;29.10;58.40;;;;;;5064048;28;20427;-77
2023/09/17 11:26:47;;;;;;;2.70;2.10;;;29.20;57.00;;;;;;5067699;28;20431;-77
2023/09/17 11:29:14;;;;;;;2.28;2.00;;;29.50;55.50;;;;;;5075921;28;20891;-76
2023/09/17 11:32:03;;;;;;;3.75;2.00;;;29.60;54.40;;;;;;5070227;28;20518;-76
2023/09/17 11:34:31;;;;;;;2.20;2.00;;;29.60;52.60;;;;;;5072590;28;20902;-73
2023/09/17 11:36:58;;;;;;;2.50;2.30;;;29.80;56.00;;;;;;5056655;28;20926;-73
2023/09/17 11:39:26;;;;;;;2.33;2.03;;;29.60;54.80;;;;;;5063556;28;20521;-74
2023/09/17 11:42:03;;;;;;;2.30;2.10;;;29.50;55.90;;;;;;5061947;28;20427;-77
2023/09/17 11:44:31;;;;;;;2.00;1.90;;;29.50;54.50;;;;;;5066190;28;20570;-77
2023/09/17 11:46:58;;;;;;;2.25;1.90;;;29.60;52.40;;;;;;5063128;28;20439;-78
2023/09/17 11:49:25;;;;;;;2.03;1.90;;;29.80;52.00;;;;;;5062930;28;20431;-75
2023/09/17 11:51:54;;;;;;;2.05;1.70;;;29.90;51.50;;;;;;5065783;28;20527;-75
2023/09/17 11:54:24;;;;;;;2.20;1.70;;;29.90;52.10;;;;;;5062266;28;20443;-74
2023/09/17 11:56:55;;;;;;;1.83;1.70;;;30.00;54.60;;;;;;5069723;28;20666;-73
2023/09/17 11:59:22;;;;;;;2.20;1.60;;;30.30;52.90;;;;;;5063076;28;20545;-74
2023/09/17 12:01:52;;;;;;;1.92;1.50;;;30.50;48.60;;;;;;5062530;28;20775;-75
2023/09/17 12:04:21;;;;;;;1.60;1.50;;;30.50;46.10;;;;;;5056674;28;20694;-71
2023/09/17 12:06:49;;;;;;;2.30;1.40;;;30.40;46.90;;;;;;5056662;28;20429;-73
2023/09/17 12:09:21;;;;;;;2.22;1.75;;;30.30;47.00;;;;;;5069095;28;20819;-73
2023/09/17 12:11:49;;;;;;;1.90;1.52;;;30.40;47.10;;;;;;5063105;28;20764;-74
2023/09/17 12:14:19;;;;;;;2.20;1.75;;;30.50;47.30;;;;;;5062187;28;20433;-74
2023/09/17 12:16:48;;;;;;;1.93;1.80;;;30.60;46.00;;;;;;5060376;28;20439;-73
2023/09/17 12:19:15;;;;;;;1.80;1.70;;;30.40;46.70;;;;;;5057807;28;20526;-73
2023/09/17 12:21:44;;;;;;;2.03;1.83;;;30.00;47.50;;;;;;5068834;28;20484;-72
2023/09/17 12:24:19;;;;;;;3.45;2.20;;;29.70;49.00;;;;;;5077389;28;20424;-70
2023/09/17 12:26:54;;;;;;;2.03;1.63;;;29.80;49.10;;;;;;5076112;28;20431;-75
2023/09/17 12:29:23;;;;;;;2.20;1.60;;;29.90;48.30;;;;;;5058343;28;20762;-74
2023/09/17 12:31:50;;;;;;;1.70;1.60;;;30.00;48.30;;;;;;5053948;28;20546;-75
2023/09/17 12:34:17;;;;;;;2.28;1.60;;;30.00;48.30;;;;;;5062005;28;20435;-74
2023/09/17 12:36:44;;;;;;;2.00;1.80;;;29.80;47.80;;;;;;5068178;28;20620;-77
2023/09/17 12:39:11;;;;;;;2.30;1.92;;;29.50;51.30;;;;;;5074180;28;20434;-74
2023/09/17 12:41:37;;;;;;;2.63;1.80;;;29.30;53.00;;;;;;5074238;28;20462;-74
2023/09/17 12:44:04;;;;;;;2.10;1.60;;;29.20;52.90;;;;;;5062878;28;20454;-74